Time;durP1;ratioP1;P1;durP2;ratioP2;P2;SDS_P1;SDS_P2;PMS_P1;PMS_P2;Temp;Humidity;BMP_temperature;BMP_pressure;BME280_temperature;BME280_humidity;BME280_pressure;Samples;Min_cycle;Max_cycle;Signal;HPM_P1;HPM_P2
2021/03/24 00:02:00;;;;;;;31.45;14.68;;;6.50;99.90;;;;;;5061652;28;20040;-72
2021/03/24 00:04:28;;;;;;;57.13;17.63;;;6.60;99.90;;;;;;5067147;28;20029;-72
2021/03/24 00:06:54;;;;;;;41.42;15.95;;;6.60;99.90;;;;;;5067109;28;20028;-73
2021/03/24 00:09:21;;;;;;;52.65;16.17;;;6.60;99.90;;;;;;5066805;28;20540;-72
2021/03/24 00:11:48;;;;;;;44.30;18.13;;;6.60;99.90;;;;;;5047145;28;20079;-72
2021/03/24 00:14:13;;;;;;;42.90;15.93;;;6.60;99.90;;;;;;5046868;28;20025;-72
2021/03/24 00:16:39;;;;;;;44.65;17.10;;;6.60;99.90;;;;;;5046955;28;20030;-72
2021/03/24 00:19:05;;;;;;;52.92;16.27;;;6.60;99.90;;;;;;5045963;28;20017;-71
2021/03/24 00:21:31;;;;;;;52.72;17.60;;;6.60;99.90;;;;;;5046364;28;20046;-72
2021/03/24 00:23:57;;;;;;;43.50;18.63;;;6.60;99.90;;;;;;5045474;28;20508;-72
2021/03/24 00:26:22;;;;;;;52.65;17.58;;;6.60;99.90;;;;;;5046548;28;20026;-73
2021/03/24 00:28:48;;;;;;;50.20;18.42;;;6.60;99.90;;;;;;5046675;28;20024;-72
2021/03/24 00:31:14;;;;;;;44.15;17.30;;;6.60;99.90;;;;;;5045272;28;20080;-72
2021/03/24 00:33:39;;;;;;;40.67;16.27;;;6.60;99.90;;;;;;5059885;28;20025;-72
2021/03/24 00:36:05;;;;;;;46.00;18.15;;;6.60;99.90;;;;;;5066397;28;20035;-72
2021/03/24 00:38:31;;;;;;;48.03;18.67;;;6.70;99.90;;;;;;5066257;28;20029;-72
2021/03/24 00:40:58;;;;;;;43.92;15.82;;;6.70;99.90;;;;;;5066418;28;20036;-72
2021/03/24 00:43:25;;;;;;;48.45;16.58;;;6.70;99.90;;;;;;5066300;28;20047;-73
2021/03/24 00:45:51;;;;;;;41.55;15.30;;;6.70;99.90;;;;;;5066038;28;20029;-73
2021/03/24 00:48:21;;;;;;;43.33;15.65;;;6.70;99.90;;;;;;5066393;28;20029;-72
2021/03/24 00:50:47;;;;;;;40.33;16.40;;;6.70;99.90;;;;;;5066093;28;20051;-72
2021/03/24 00:53:14;;;;;;;43.53;16.05;;;6.70;99.90;;;;;;5066169;28;20021;-73
2021/03/24 00:55:39;;;;;;;43.88;17.00;;;6.80;99.90;;;;;;5048665;28;20052;-72
2021/03/24 00:58:05;;;;;;;34.70;13.75;;;6.70;99.90;;;;;;5044911;28;20029;-72
2021/03/24 01:00:34;;;;;;;46.08;17.88;;;6.80;99.90;;;;;;5046077;28;20021;-72
2021/03/24 01:03:00;;;;;;;43.95;16.88;;;6.90;99.90;;;;;;5046131;28;20087;-73
2021/03/24 01:05:27;;;;;;;54.42;17.50;;;6.70;99.90;;;;;;5045814;28;20038;-73
2021/03/24 01:08:14;;;;;;;42.55;16.02;;;6.80;99.90;;;;;;5044797;28;20025;-72
2021/03/24 01:10:41;;;;;;;46.63;15.90;;;6.80;99.90;;;;;;5045627;28;20045;-72
2021/03/24 01:13:08;;;;;;;43.53;17.55;;;6.80;99.90;;;;;;5044282;28;20025;-73
2021/03/24 01:15:34;;;;;;;45.70;18.40;;;6.90;99.90;;;;;;5045622;28;20032;-73
2021/03/24 01:18:00;;;;;;;46.33;17.48;;;6.90;99.90;;;;;;5044358;28;20395;-73
2021/03/24 01:20:30;;;;;;;48.75;17.88;;;6.90;99.90;;;;;;5045585;28;20137;-73
2021/03/24 01:22:57;;;;;;;42.45;15.55;;;6.90;99.90;;;;;;5045728;28;20021;-73
2021/03/24 01:25:24;;;;;;;39.97;15.50;;;6.90;99.90;;;;;;5045274;28;20040;-73
2021/03/24 01:27:51;;;;;;;48.42;16.40;;;6.90;99.90;;;;;;5045661;28;20033;-72
2021/03/24 01:30:18;;;;;;;43.35;15.88;;;6.90;99.90;;;;;;5045658;28;20052;-72
2021/03/24 01:32:43;;;;;;;46.85;17.55;;;6.90;99.90;;;;;;5045387;28;20025;-72
2021/03/24 01:35:10;;;;;;;51.95;16.20;;;6.90;99.90;;;;;;5043931;28;20056;-72
2021/03/24 01:37:40;;;;;;;44.85;17.00;;;6.90;99.90;;;;;;5045200;28;20053;-72
2021/03/24 01:40:08;;;;;;;47.90;16.20;;;6.90;99.90;;;;;;5045458;28;20026;-71
2021/03/24 01:42:34;;;;;;;48.30;17.65;;;6.90;99.90;;;;;;5045404;28;20033;-71
2021/03/24 01:45:13;;;;;;;52.15;17.85;;;6.90;99.90;;;;;;5045045;28;20088;-71
2021/03/24 01:47:41;;;;;;;50.78;16.88;;;6.90;99.90;;;;;;5046555;28;20035;-71
2021/03/24 01:50:21;;;;;;;46.30;17.42;;;6.90;99.90;;;;;;5045259;28;20029;-72
2021/03/24 01:52:47;;;;;;;44.72;17.30;;;6.90;99.90;;;;;;5045359;28;20065;-71
2021/03/24 01:55:13;;;;;;;56.47;16.83;;;6.90;99.90;;;;;;5044873;28;20102;-72
2021/03/24 01:57:39;;;;;;;53.63;18.15;;;6.90;99.90;;;;;;5044307;28;20022;-72
2021/03/24 02:00:19;;;;;;;44.88;17.42;;;6.80;99.90;;;;;;5044910;28;20026;-72
2021/03/24 02:02:45;;;;;;;53.15;18.13;;;6.90;99.90;;;;;;5045111;28;20467;-71
2021/03/24 02:05:11;;;;;;;51.70;17.65;;;6.80;99.90;;;;;;5044697;28;20059;-71
2021/03/24 02:07:44;;;;;;;48.17;17.60;;;6.90;99.90;;;;;;5044914;28;20085;-71
2021/03/24 02:10:48;;;;;;;38.65;15.55;;;6.90;99.90;;;;;;5044867;28;20029;-72
2021/03/24 02:13:23;;;;;;;45.23;16.60;;;6.90;99.90;;;;;;5041328;28;20038;-72
2021/03/24 02:15:55;;;;;;;39.42;16.60;;;6.90;99.90;;;;;;5045032;28;20033;-72
2021/03/24 02:18:24;;;;;;;39.58;16.27;;;7.00;99.90;;;;;;5045034;28;20049;-73
2021/03/24 02:21:16;;;;;;;43.25;15.98;;;7.00;99.90;;;;;;5044319;28;20049;-71
2021/03/24 02:24:03;;;;;;;45.75;16.65;;;7.00;99.90;;;;;;5044629;28;20033;-72
2021/03/24 02:26:48;;;;;;;46.72;17.67;;;7.00;99.90;;;;;;5044865;28;20171;-71
2021/03/24 02:29:19;;;;;;;43.28;16.15;;;7.00;99.90;;;;;;5044705;28;20033;-72
2021/03/24 02:31:45;;;;;;;39.60;16.27;;;7.00;99.90;;;;;;5044586;28;20038;-71
2021/03/24 02:34:16;;;;;;;37.85;15.55;;;7.00;99.90;;;;;;5044428;28;20034;-70
2021/03/24 02:36:42;;;;;;;54.65;17.73;;;6.90;99.90;;;;;;5044679;28;20037;-72
2021/03/24 02:39:10;;;;;;;43.63;15.98;;;7.00;99.90;;;;;;5044556;28;20036;-72
2021/03/24 02:41:37;;;;;;;37.85;13.18;;;6.90;99.90;;;;;;5044430;28;20048;-71
2021/03/24 02:44:03;;;;;;;46.95;15.38;;;6.90;99.90;;;;;;5044403;28;20029;-71
2021/03/24 02:46:29;;;;;;;35.03;15.10;;;6.90;99.90;;;;;;5044594;28;20112;-73
2021/03/24 02:48:59;;;;;;;52.22;17.67;;;6.90;99.90;;;;;;5044595;28;20104;-72
2021/03/24 02:51:25;;;;;;;57.30;16.55;;;6.90;99.90;;;;;;5044340;28;20037;-71
2021/03/24 02:53:53;;;;;;;43.55;16.50;;;6.90;99.90;;;;;;5044428;28;20022;-72
2021/03/24 02:56:18;;;;;;;41.90;17.33;;;6.80;99.90;;;;;;5044475;28;20030;-70
2021/03/24 02:58:44;;;;;;;52.00;15.57;;;6.70;99.90;;;;;;5044357;28;20064;-70
2021/03/24 03:01:24;;;;;;;42.42;17.17;;;6.70;99.90;;;;;;5044396;28;20049;-71
2021/03/24 03:04:05;;;;;;;36.40;15.90;;;6.70;99.90;;;;;;5044615;28;20079;-71
2021/03/24 03:06:31;;;;;;;49.50;18.20;;;6.60;99.90;;;;;;5044083;28;20021;-72
2021/03/24 03:09:05;;;;;;;44.15;16.52;;;6.60;99.90;;;;;;5047925;28;20028;-71
2021/03/24 03:11:49;;;;;;;40.55;16.77;;;6.60;99.90;;;;;;5048037;28;20033;-73
2021/03/24 03:14:21;;;;;;;40.40;16.17;;;6.60;99.90;;;;;;5048076;28;20033;-71
2021/03/24 03:16:51;;;;;;;48.05;17.10;;;6.60;99.90;;;;;;5048164;28;20040;-71
2021/03/24 03:19:29;;;;;;;48.92;15.63;;;6.60;99.90;;;;;;5048000;28;20048;-71
2021/03/24 03:22:04;;;;;;;36.03;15.10;;;6.60;99.90;;;;;;5047799;28;20084;-72
2021/03/24 03:24:40;;;;;;;50.88;18.02;;;6.60;99.90;;;;;;5047918;28;20413;-73
2021/03/24 03:27:10;;;;;;;41.67;15.13;;;6.60;99.90;;;;;;5047921;28;20484;-71
2021/03/24 03:29:38;;;;;;;43.38;16.50;;;6.60;99.90;;;;;;5047591;28;20040;-71
2021/03/24 03:32:05;;;;;;;55.60;17.42;;;6.50;99.90;;;;;;5047743;28;20029;-72
2021/03/24 03:34:35;;;;;;;46.65;18.00;;;6.50;99.90;;;;;;5047670;28;20377;-72
2021/03/24 03:37:01;;;;;;;45.95;18.42;;;6.50;99.90;;;;;;5047654;28;20017;-72
2021/03/24 03:39:29;;;;;;;48.50;18.50;;;6.50;99.90;;;;;;5047523;28;20029;-72
2021/03/24 03:41:57;;;;;;;44.38;16.85;;;6.40;99.90;;;;;;5046370;28;20097;-72
2021/03/24 03:44:25;;;;;;;46.90;17.35;;;6.40;99.90;;;;;;5046210;28;20386;-73
2021/03/24 03:46:54;;;;;;;53.17;18.02;;;6.50;99.90;;;;;;5047679;28;20167;-72
2021/03/24 03:49:22;;;;;;;37.85;16.25;;;6.40;99.90;;;;;;5047818;28;20037;-72
2021/03/24 03:52:15;;;;;;;47.30;17.13;;;6.40;99.90;;;;;;5047626;28;20041;-72
2021/03/24 03:54:59;;;;;;;45.90;17.98;;;6.40;99.90;;;;;;5047249;28;20063;-71
2021/03/24 03:58:01;;;;;;;49.78;17.35;;;6.40;99.90;;;;;;5047273;28;20030;-73
2021/03/24 04:00:38;;;;;;;40.38;15.98;;;6.40;99.90;;;;;;5042711;28;20029;-73
2021/03/24 04:03:14;;;;;;;55.20;19.00;;;6.40;99.90;;;;;;5047351;28;20029;-72
2021/03/24 04:05:54;;;;;;;50.97;17.45;;;6.50;99.90;;;;;;5047007;28;20056;-71
2021/03/24 04:08:22;;;;;;;58.92;18.58;;;6.50;99.90;;;;;;5046267;28;20057;-71
2021/03/24 04:10:57;;;;;;;38.28;16.30;;;6.40;99.90;;;;;;5047058;28;20037;-72
2021/03/24 04:13:26;;;;;;;51.03;17.83;;;6.50;99.90;;;;;;5046957;28;20032;-72
2021/03/24 04:16:01;;;;;;;55.08;18.92;;;6.50;99.90;;;;;;5047108;28;20028;-72
2021/03/24 04:18:37;;;;;;;42.47;17.15;;;6.50;99.90;;;;;;5046709;28;20052;-73
2021/03/24 04:21:04;;;;;;;46.47;16.52;;;6.50;99.90;;;;;;5046470;28;20434;-72
2021/03/24 04:23:36;;;;;;;47.00;16.70;;;6.50;99.90;;;;;;5046840;28;20030;-72
2021/03/24 04:26:10;;;;;;;56.45;19.25;;;6.60;99.90;;;;;;5046736;28;20068;-72
2021/03/24 04:28:40;;;;;;;41.92;15.25;;;6.50;99.90;;;;;;5045446;28;20022;-72
2021/03/24 04:31:09;;;;;;;49.53;17.08;;;6.40;99.90;;;;;;5046565;28;20045;-72
2021/03/24 04:33:35;;;;;;;48.35;18.08;;;6.50;99.90;;;;;;5046745;28;20026;-73
2021/03/24 04:36:15;;;;;;;55.08;19.05;;;6.50;99.90;;;;;;5046427;28;20025;-72
2021/03/24 04:38:47;;;;;;;50.67;17.58;;;6.50;99.90;;;;;;5046722;28;20168;-72
2021/03/24 04:41:38;;;;;;;45.38;17.13;;;6.50;99.90;;;;;;5046648;28;20025;-72
2021/03/24 04:44:10;;;;;;;45.55;17.30;;;6.50;99.90;;;;;;5045024;28;20068;-72
2021/03/24 04:46:40;;;;;;;74.00;18.48;;;6.50;99.90;;;;;;5046371;28;20033;-72
2021/03/24 04:49:12;;;;;;;58.42;18.67;;;6.60;99.90;;;;;;5045077;28;20036;-73
2021/03/24 04:51:39;;;;;;;42.67;17.55;;;6.50;99.90;;;;;;5046345;28;20037;-72
2021/03/24 04:54:16;;;;;;;44.15;14.80;;;6.50;99.90;;;;;;5046322;28;20057;-73
2021/03/24 04:56:47;;;;;;;54.63;18.05;;;6.60;99.90;;;;;;5046006;28;20060;-72
2021/03/24 04:59:24;;;;;;;54.42;18.83;;;6.50;99.90;;;;;;5046196;28;20094;-73
2021/03/24 05:01:55;;;;;;;46.67;17.80;;;6.50;99.90;;;;;;5046376;28;20029;-71
2021/03/24 05:04:36;;;;;;;45.83;17.30;;;6.50;99.90;;;;;;5046125;28;20390;-72
2021/03/24 05:07:11;;;;;;;42.95;17.98;;;6.50;99.90;;;;;;5046269;28;20025;-72
2021/03/24 05:09:37;;;;;;;52.88;17.90;;;6.40;99.90;;;;;;5045549;28;20083;-72
2021/03/24 05:12:10;;;;;;;56.65;18.10;;;6.40;99.90;;;;;;5045659;28;20034;-73
2021/03/24 05:14:43;;;;;;;48.42;19.15;;;6.40;99.90;;;;;;5044432;28;20117;-72
2021/03/24 05:17:15;;;;;;;52.92;20.35;;;6.40;99.90;;;;;;5044650;28;20033;-72
2021/03/24 05:19:41;;;;;;;53.45;19.13;;;6.40;99.90;;;;;;5045615;28;20029;-72
2021/03/24 05:22:39;;;;;;;39.72;16.50;;;6.40;99.90;;;;;;5045387;28;20046;-72
2021/03/24 05:25:17;;;;;;;49.50;18.55;;;6.40;99.90;;;;;;5044147;28;20036;-71
2021/03/24 05:27:56;;;;;;;46.33;16.63;;;6.40;99.90;;;;;;5045656;28;20398;-72
2021/03/24 05:30:34;;;;;;;46.90;17.08;;;6.30;99.90;;;;;;5045091;28;20034;-74
2021/03/24 05:33:12;;;;;;;45.15;18.20;;;6.30;99.90;;;;;;5045475;28;20037;-72
2021/03/24 05:35:56;;;;;;;40.50;17.33;;;6.30;99.90;;;;;;5045419;28;20044;-71
2021/03/24 05:38:42;;;;;;;42.33;17.27;;;6.20;99.90;;;;;;5045531;28;20029;-72
2021/03/24 05:41:32;;;;;;;52.80;19.30;;;6.20;99.90;;;;;;5045355;28;20034;-72
2021/03/24 05:44:23;;;;;;;56.47;17.00;;;6.20;99.90;;;;;;5045321;28;20067;-73
2021/03/24 05:47:33;;;;;;;49.63;18.58;;;6.20;99.90;;;;;;5045145;28;20033;-71
2021/03/24 05:50:22;;;;;;;58.42;18.85;;;6.20;99.90;;;;;;5044916;28;20037;-72
2021/03/24 05:53:15;;;;;;;48.47;18.98;;;6.20;99.90;;;;;;5045078;28;20043;-71
2021/03/24 05:55:49;;;;;;;45.95;18.13;;;6.20;99.90;;;;;;5044786;28;20043;-71
2021/03/24 05:58:15;;;;;;;51.05;17.42;;;6.20;99.90;;;;;;5044781;28;20090;-71
2021/03/24 06:01:01;;;;;;;52.40;19.75;;;6.20;99.90;;;;;;5045047;28;20509;-71
2021/03/24 06:03:46;;;;;;;54.17;19.27;;;6.30;99.90;;;;;;5044995;28;20059;-72
2021/03/24 06:06:36;;;;;;;55.35;19.45;;;6.30;99.90;;;;;;5045135;28;20044;-71
2021/03/24 06:09:25;;;;;;;55.83;20.00;;;6.30;99.90;;;;;;5044812;28;20036;-72
2021/03/24 06:12:39;;;;;;;51.97;19.58;;;6.30;99.90;;;;;;5044605;28;20099;-72
2021/03/24 06:15:35;;;;;;;46.17;18.00;;;6.30;99.90;;;;;;5022506;28;20034;-71
2021/03/24 06:18:06;;;;;;;38.55;16.45;;;6.30;99.90;;;;;;5022355;28;20113;-72
2021/03/24 06:20:52;;;;;;;53.05;17.90;;;6.20;99.90;;;;;;5030383;28;20049;-71
2021/03/24 06:24:02;;;;;;;45.38;18.58;;;6.40;99.90;;;;;;5044392;28;20029;-71
2021/03/24 06:26:45;;;;;;;64.53;18.58;;;6.40;99.90;;;;;;5043009;28;20037;-73
2021/03/24 06:29:35;;;;;;;52.03;19.40;;;6.40;99.90;;;;;;5044477;28;20044;-72
2021/03/24 06:32:15;;;;;;;52.15;17.75;;;6.50;99.90;;;;;;5044251;28;20038;-72
2021/03/24 06:35:18;;;;;;;48.83;19.65;;;6.50;99.90;;;;;;5042783;28;20029;-72
2021/03/24 06:38:14;;;;;;;46.10;18.08;;;6.50;99.90;;;;;;5044241;28;20059;-71
2021/03/24 06:40:47;;;;;;;59.33;19.33;;;6.60;99.90;;;;;;5044179;28;20036;-72
2021/03/24 06:43:50;;;;;;;67.20;21.00;;;6.60;99.90;;;;;;5046702;28;20541;-72
2021/03/24 06:46:36;;;;;;;47.92;18.08;;;6.60;99.90;;;;;;5048307;28;20363;-74
2021/03/24 06:49:30;;;;;;;52.58;18.17;;;6.70;99.90;;;;;;5058238;28;20063;-74
2021/03/24 06:52:27;;;;;;;41.70;18.50;;;6.80;99.90;;;;;;5056534;28;20129;-74
2021/03/24 06:55:20;;;;;;;66.28;19.58;;;6.90;99.90;;;;;;5068111;28;20029;-75
2021/03/24 06:58:21;;;;;;;47.75;19.42;;;7.00;99.90;;;;;;5066680;28;20025;-74
2021/03/24 07:01:21;;;;;;;59.78;18.67;;;7.10;99.90;;;;;;5046388;28;20090;-73
2021/03/24 07:04:28;;;;;;;45.70;18.75;;;7.10;99.90;;;;;;5044577;28;20087;-73
2021/03/24 07:07:12;;;;;;;41.65;19.05;;;7.30;99.90;;;;;;5009353;28;20026;-74
2021/03/24 07:09:49;;;;;;;58.08;21.45;;;7.30;99.90;;;;;;5046837;28;20037;-73
2021/03/24 07:12:25;;;;;;;54.08;19.73;;;7.50;99.90;;;;;;5047929;28;20037;-73
2021/03/24 07:14:55;;;;;;;48.95;18.25;;;7.50;99.90;;;;;;5064505;28;20028;-75
2021/03/24 07:17:44;;;;;;;48.83;19.40;;;7.60;99.90;;;;;;5068074;28;20108;-74
2021/03/24 07:20:28;;;;;;;62.55;21.25;;;7.70;99.90;;;;;;5066936;28;20021;-74
2021/03/24 07:23:26;;;;;;;48.83;18.08;;;7.80;99.90;;;;;;5053998;28;20029;-74
2021/03/24 07:26:08;;;;;;;60.28;22.58;;;7.90;99.90;;;;;;5036345;28;20041;-74
2021/03/24 07:28:59;;;;;;;50.30;19.40;;;7.90;99.90;;;;;;5063303;28;20037;-73
2021/03/24 07:32:03;;;;;;;77.53;20.98;;;7.90;99.90;;;;;;5046567;28;20079;-74
2021/03/24 07:34:42;;;;;;;55.50;20.38;;;7.80;99.90;;;;;;5061716;28;20032;-74
2021/03/24 07:37:41;;;;;;;56.15;20.42;;;7.80;99.90;;;;;;5067375;28;20025;-73
2021/03/24 07:40:26;;;;;;;55.05;19.77;;;7.80;99.90;;;;;;5067409;28;20151;-73
2021/03/24 07:43:14;;;;;;;46.60;19.45;;;7.80;99.90;;;;;;5049341;28;20029;-74
2021/03/24 07:45:56;;;;;;;55.92;18.75;;;7.80;99.90;;;;;;5047262;28;20053;-73
2021/03/24 07:48:31;;;;;;;63.08;20.45;;;7.90;99.90;;;;;;5047291;28;20025;-75
2021/03/24 07:51:18;;;;;;;53.17;18.50;;;7.90;99.90;;;;;;5045746;28;20076;-74
2021/03/24 07:54:03;;;;;;;59.95;21.55;;;8.00;99.90;;;;;;5046157;28;20039;-73
2021/03/24 07:56:47;;;;;;;45.53;20.33;;;8.10;99.90;;;;;;5047251;28;20025;-74
2021/03/24 07:59:36;;;;;;;53.22;20.60;;;8.20;99.90;;;;;;5057380;28;20098;-73
2021/03/24 08:02:22;;;;;;;54.22;20.95;;;8.20;99.90;;;;;;5066457;28;20025;-74
2021/03/24 08:05:19;;;;;;;49.22;19.23;;;8.30;99.90;;;;;;5045798;28;20045;-74
2021/03/24 08:08:09;;;;;;;55.08;20.25;;;8.40;99.90;;;;;;5046723;28;20033;-73
2021/03/24 08:10:54;;;;;;;55.60;18.73;;;8.40;99.90;;;;;;5049058;28;20537;-73
2021/03/24 08:13:38;;;;;;;54.83;20.90;;;8.40;99.90;;;;;;5066444;28;20025;-74
2021/03/24 08:16:07;;;;;;;;;;;8.40;99.90;;;;;;5064512;28;20029;-73
2021/03/24 08:19:03;;;;;;;60.08;20.35;;;8.60;99.90;;;;;;5066305;28;19912;-73
2021/03/24 08:21:51;;;;;;;55.65;19.23;;;8.60;99.90;;;;;;5055810;28;20060;-73
2021/03/24 08:24:36;;;;;;;42.65;19.38;;;8.70;99.90;;;;;;5047788;28;20036;-73
2021/03/24 08:27:10;;;;;;;50.40;19.67;;;8.80;99.90;;;;;;5062810;28;20047;-73
2021/03/24 08:29:46;;;;;;;51.85;19.60;;;8.90;99.90;;;;;;5048727;28;20033;-72
2021/03/24 08:32:55;;;;;;;44.17;17.83;;;8.90;99.90;;;;;;5055931;28;20021;-73
2021/03/24 08:35:40;;;;;;;59.92;22.98;;;9.00;99.90;;;;;;5065965;28;20029;-74
2021/03/24 08:38:24;;;;;;;;;;;9.00;99.90;;;;;;5064519;28;20032;-73
2021/03/24 08:41:19;;;;;;;72.05;21.73;;;9.00;99.90;;;;;;5066462;28;19904;-73
2021/03/24 08:43:51;;;;;;;44.60;20.08;;;9.10;99.90;;;;;;5066340;28;20053;-72
2021/03/24 08:46:36;;;;;;;48.10;20.67;;;9.20;99.90;;;;;;5066266;28;20022;-72
2021/03/24 08:49:09;;;;;;;53.00;22.20;;;9.30;99.90;;;;;;5065980;28;20025;-73
2021/03/24 08:52:07;;;;;;;56.20;21.10;;;9.30;99.90;;;;;;5065893;28;20032;-74
2021/03/24 08:54:44;;;;;;;46.50;18.33;;;9.40;99.90;;;;;;5064365;28;20036;-73
2021/03/24 08:57:31;;;;;;;58.20;21.13;;;9.40;99.90;;;;;;5060600;28;20037;-74
2021/03/24 09:00:18;;;;;;;61.80;21.55;;;9.50;99.90;;;;;;5066233;28;20040;-73
2021/03/24 09:03:21;;;;;;;60.55;21.95;;;9.60;99.90;;;;;;5048808;28;20044;-73
2021/03/24 09:08:13;;;;;;;53.53;21.33;;;9.80;99.90;;;;;;5101759;27;20386;-74
2021/03/24 09:10:57;;;;;;;56.05;21.42;;;9.90;99.90;;;;;;5101808;28;20040;-73
2021/03/24 09:13:23;;;;;;;56.45;21.40;;;10.00;99.90;;;;;;5092302;28;20035;-74
2021/03/24 09:18:44;;;;;;;49.55;20.48;;;10.10;99.90;;;;;;5101335;28;20389;-72
2021/03/24 09:21:23;;;;;;;56.58;21.65;;;10.30;99.90;;;;;;5081776;28;20029;-71
2021/03/24 09:24:05;;;;;;;50.92;19.42;;;10.50;99.90;;;;;;5092329;28;20036;-72
2021/03/24 09:26:59;;;;;;;51.33;21.00;;;10.40;99.90;;;;;;5101355;28;20028;-74
2021/03/24 09:29:45;;;;;;;56.25;22.63;;;10.60;99.90;;;;;;5101784;28;20031;-75
2021/03/24 09:32:20;;;;;;;58.20;21.13;;;10.60;99.90;;;;;;5101341;28;20028;-74
2021/03/24 09:35:04;;;;;;;53.35;20.55;;;10.80;99.90;;;;;;5099970;28;20089;-74
2021/03/24 09:37:41;;;;;;;44.77;17.23;;;10.80;99.90;;;;;;5088224;28;20055;-74
2021/03/24 09:40:23;;;;;;;44.35;18.33;;;11.00;99.90;;;;;;5081031;28;20032;-73
2021/03/24 09:42:55;;;;;;;51.17;20.85;;;11.30;99.90;;;;;;5091411;28;20025;-74
2021/03/24 09:45:26;;;;;;;56.13;19.75;;;11.60;99.90;;;;;;5099945;28;20705;-74
2021/03/24 09:48:14;;;;;;;52.50;19.83;;;12.00;99.90;;;;;;5101502;28;20020;-76
2021/03/24 09:50:40;;;;;;;43.53;19.30;;;12.30;99.90;;;;;;5100011;28;20064;-73
2021/03/24 09:53:06;;;;;;;50.53;20.67;;;12.60;99.90;;;;;;5087250;28;20029;-73
2021/03/24 09:55:41;;;;;;;51.63;21.00;;;12.90;99.90;;;;;;5099015;28;20055;-73
2021/03/24 09:58:06;;;;;;;46.42;20.30;;;13.00;99.90;;;;;;5099433;28;20047;-74
2021/03/24 10:00:38;;;;;;;46.67;18.77;;;13.20;99.90;;;;;;5090270;28;20032;-76
2021/03/24 10:03:27;;;;;;;40.63;18.85;;;13.40;99.90;;;;;;5079104;28;20024;-74
2021/03/24 10:06:00;;;;;;;50.20;19.45;;;13.50;99.90;;;;;;5079418;28;20029;-75
2021/03/24 10:08:37;;;;;;;52.10;19.83;;;13.60;99.90;;;;;;5086566;28;20067;-75
2021/03/24 10:11:16;;;;;;;51.20;20.30;;;13.70;99.90;;;;;;5083266;28;20059;-74
2021/03/24 10:13:55;;;;;;;42.13;17.95;;;13.80;99.90;;;;;;5079646;28;20072;-73
2021/03/24 10:16:32;;;;;;;46.45;19.02;;;13.70;99.90;;;;;;5081960;28;20028;-75
2021/03/24 10:19:03;;;;;;;47.47;18.27;;;13.50;99.90;;;;;;5100482;28;20028;-74
2021/03/24 10:21:43;;;;;;;44.63;19.08;;;13.40;99.90;;;;;;5099240;28;20031;-75
2021/03/24 10:24:15;;;;;;;44.33;18.15;;;13.40;99.90;;;;;;5090257;28;20028;-75
2021/03/24 10:26:40;;;;;;;44.00;17.50;;;13.70;99.90;;;;;;5085816;28;20036;-74
2021/03/24 10:29:15;;;;;;;37.47;17.00;;;14.10;99.90;;;;;;5072519;28;20021;-75
2021/03/24 10:31:42;;;;;;;;;;;14.40;99.90;;;;;;5066400;28;20024;-74
2021/03/24 10:34:19;;;;;;;37.67;17.58;;;14.80;99.90;;;;;;5078507;28;19910;-75
2021/03/24 10:36:57;;;;;;;54.78;19.10;;;15.00;99.90;;;;;;5086710;28;20040;-75
2021/03/24 10:39:27;;;;;;;44.50;18.73;;;15.30;99.90;;;;;;5078365;28;20048;-76
2021/03/24 10:42:18;;;;;;;41.53;17.08;;;15.50;99.90;;;;;;5074072;28;20036;-74
2021/03/24 10:45:00;;;;;;;43.03;18.98;;;15.70;99.90;;;;;;5065847;28;20031;-75
2021/03/24 10:47:33;;;;;;;36.95;17.73;;;15.90;99.90;;;;;;5080664;28;20036;-74
2021/03/24 10:50:23;;;;;;;38.35;17.33;;;15.90;99.90;;;;;;5086671;28;20514;-74
2021/03/24 10:53:03;;;;;;;40.90;17.00;;;15.50;99.90;;;;;;5084973;28;20040;-74
2021/03/24 10:55:31;;;;;;;36.85;16.80;;;15.30;99.90;;;;;;5086277;28;20039;-75
2021/03/24 10:58:31;;;;;;;35.95;14.70;;;15.30;99.90;;;;;;5086202;28;20033;-75
2021/03/24 11:01:11;;;;;;;46.03;15.00;;;15.30;99.90;;;;;;5084858;28;20028;-74
2021/03/24 11:04:11;;;;;;;34.60;15.35;;;15.40;99.90;;;;;;5086327;28;20059;-73
2021/03/24 11:06:44;;;;;;;32.38;13.27;;;15.60;99.90;;;;;;5080265;28;20036;-74
2021/03/24 11:09:14;;;;;;;29.88;14.40;;;15.70;99.90;;;;;;5074068;28;20029;-75
2021/03/24 11:12:04;;;;;;;36.67;15.98;;;16.00;99.90;;;;;;5074563;28;20427;-73
2021/03/24 11:14:35;;;;;;;39.13;14.88;;;16.20;99.90;;;;;;5083969;28;20554;-74
2021/03/24 11:17:03;;;;;;;32.60;14.88;;;16.40;99.90;;;;;;5084091;28;20076;-73
2021/03/24 11:19:48;;;;;;;29.63;13.45;;;16.40;99.90;;;;;;5084314;28;20056;-73
2021/03/24 11:22:38;;;;;;;29.45;14.15;;;16.50;99.90;;;;;;5085391;28;20036;-74
2021/03/24 11:25:35;;;;;;;30.08;15.18;;;16.70;99.90;;;;;;5083926;28;20032;-74
2021/03/24 11:28:23;;;;;;;30.33;14.90;;;16.70;99.90;;;;;;5085654;28;20035;-76
2021/03/24 11:31:00;;;;;;;36.45;14.20;;;16.80;99.90;;;;;;5084262;28;20032;-74
2021/03/24 11:33:34;;;;;;;41.38;14.48;;;16.50;99.90;;;;;;5083910;28;20078;-76
2021/03/24 11:36:21;;;;;;;28.55;13.57;;;16.70;99.90;;;;;;5085332;28;20032;-74
2021/03/24 11:39:09;;;;;;;33.50;14.35;;;16.70;99.90;;;;;;5085586;28;20067;-75
2021/03/24 11:41:37;;;;;;;29.98;13.35;;;16.90;99.90;;;;;;5083767;28;20084;-76
2021/03/24 11:44:15;;;;;;;36.88;14.57;;;17.10;99.90;;;;;;5076513;28;20055;-73
2021/03/24 11:46:41;;;;;;;28.77;14.23;;;17.30;99.90;;;;;;5065242;28;20433;-74
2021/03/24 11:49:44;;;;;;;32.88;13.70;;;17.50;99.90;;;;;;5083208;28;20048;-75
2021/03/24 11:52:34;;;;;;;33.63;13.43;;;17.70;99.90;;;;;;5083606;28;20040;-76
2021/03/24 11:55:29;;;;;;;34.95;14.77;;;17.70;99.90;;;;;;5045318;28;20042;-76
2021/03/24 11:58:03;;;;;;;31.05;14.82;;;17.90;99.90;;;;;;5045243;28;20038;-75
2021/03/24 12:00:57;;;;;;;32.08;13.68;;;18.00;99.90;;;;;;5044950;28;20041;-77
2021/03/24 12:04:02;;;;;;;31.23;14.55;;;18.00;99.90;;;;;;5045288;28;20053;-76
2021/03/24 12:07:01;;;;;;;28.33;13.85;;;18.10;99.90;;;;;;5044999;28;20091;-75
2021/03/24 12:09:31;;;;;;;34.60;15.57;;;18.30;99.90;;;;;;5044924;28;20033;-76
2021/03/24 12:12:15;;;;;;;26.20;13.52;;;18.40;99.90;;;;;;5044939;28;20080;-75
2021/03/24 12:14:44;;;;;;;23.37;12.40;;;18.60;99.90;;;;;;5044798;28;20029;-75
2021/03/24 12:17:32;;;;;;;32.83;13.93;;;18.60;99.90;;;;;;5042948;28;20053;-75
2021/03/24 12:20:10;;;;;;;33.30;13.98;;;18.60;99.90;;;;;;5063827;28;20084;-74
2021/03/24 12:22:36;;;;;;;29.05;13.35;;;18.80;99.90;;;;;;5078418;28;20033;-75
2021/03/24 12:25:18;;;;;;;26.98;12.73;;;19.00;99.90;;;;;;5070760;28;20029;-76
2021/03/24 12:28:06;;;;;;;32.53;14.57;;;19.00;99.90;;;;;;5064659;28;20033;-75
2021/03/24 12:30:38;;;;;;;27.58;13.80;;;19.00;99.90;;;;;;5063157;28;20032;-74
2021/03/24 12:33:15;;;;;;;23.90;11.82;;;18.80;99.90;;;;;;5063556;28;20025;-74
2021/03/24 12:35:46;;;;;;;33.58;12.82;;;18.70;99.90;;;;;;5059057;28;20025;-73
2021/03/24 12:38:18;;;;;;;27.67;12.15;;;18.80;99.90;;;;;;5044616;28;20069;-76
2021/03/24 12:40:51;;;;;;;31.20;13.13;;;19.10;99.90;;;;;;5043326;28;20029;-76
2021/03/24 12:43:32;;;;;;;25.55;12.35;;;19.30;99.90;;;;;;5043003;28;20029;-73
2021/03/24 12:46:31;;;;;;;24.35;12.18;;;19.40;99.90;;;;;;5044619;28;20112;-72
2021/03/24 12:48:59;;;;;;;27.73;11.85;;;19.60;99.90;;;;;;5043161;28;20121;-75
2021/03/24 12:51:39;;;;;;;42.30;12.98;;;19.60;99.90;;;;;;5044013;28;20025;-75
2021/03/24 12:54:10;;;;;;;22.17;11.02;;;19.60;99.90;;;;;;5059664;28;20054;-74
2021/03/24 12:56:45;;;;;;;22.65;11.85;;;19.70;99.90;;;;;;5068567;28;20033;-74
2021/03/24 12:59:28;;;;;;;28.77;11.70;;;19.80;99.90;;;;;;5070370;28;20035;-75
2021/03/24 13:02:35;;;;;;;20.17;10.73;;;20.20;99.90;;;;;;5084677;28;20394;-75
2021/03/24 13:05:23;;;;;;;24.67;10.30;;;20.30;99.90;;;;;;5042166;28;20053;-76
2021/03/24 13:08:19;;;;;;;22.67;11.20;;;20.40;99.90;;;;;;5059522;28;20036;-75
2021/03/24 13:10:50;;;;;;;28.92;12.30;;;20.50;99.90;;;;;;5056023;28;20021;-73
2021/03/24 13:13:28;;;;;;;26.77;11.55;;;20.70;99.90;;;;;;5063835;28;20033;-75
2021/03/24 13:16:10;;;;;;;27.05;12.10;;;20.90;99.90;;;;;;5064094;28;20053;-75
2021/03/24 13:18:38;;;;;;;22.42;10.73;;;21.10;99.90;;;;;;5063693;28;20049;-74
2021/03/24 13:21:04;;;;;;;26.80;12.60;;;21.20;99.90;;;;;;5063804;28;20025;-73
2021/03/24 13:23:45;;;;;;;27.13;12.32;;;21.40;99.90;;;;;;5063772;28;20029;-73
2021/03/24 13:26:21;;;;;;;20.15;10.55;;;21.60;99.90;;;;;;5063628;28;20057;-73
2021/03/24 13:28:55;;;;;;;27.13;11.75;;;21.40;99.90;;;;;;5060869;28;20052;-75
2021/03/24 13:31:57;;;;;;;20.23;10.43;;;21.20;99.90;;;;;;5063868;28;20028;-72
2021/03/24 13:34:31;;;;;;;19.98;10.00;;;21.00;99.90;;;;;;5075737;28;20077;-74
2021/03/24 13:37:01;;;;;;;21.95;11.20;;;21.20;99.90;;;;;;5078785;28;20049;-77